createdAt,value
2018-02-08T00:00:56.510Z,56.50
2018-02-08T00:01:56.499Z,53.60
2018-02-08T00:03:17.494Z,57.00
2018-02-08T00:04:17.487Z,56.90
2018-02-08T00:04:56.470Z,57.10
2018-02-08T00:05:56.463Z,57.30
2018-02-08T00:06:56.452Z,57.60
2018-02-08T00:08:17.443Z,58.40
2018-02-08T00:09:17.431Z,55.80
2018-02-08T00:09:56.418Z,56.10
2018-02-08T00:10:56.401Z,55.60
2018-02-08T00:11:56.406Z,54.80
2018-02-08T00:13:17.390Z,55.50
2018-02-08T00:14:17.384Z,56.10
2018-02-08T00:14:56.365Z,58.20
2018-02-08T00:15:56.353Z,57.90
2018-02-08T00:16:56.341Z,55.00
2018-02-08T00:18:17.337Z,57.40
2018-02-08T00:19:17.327Z,55.90
2018-02-08T00:19:56.318Z,54.30
2018-02-08T00:20:56.296Z,57.60
2018-02-08T00:21:56.290Z,58.40
2018-02-08T00:23:17.287Z,59.70
2018-02-08T00:24:17.277Z,58.00
2018-02-08T00:24:56.260Z,55.10
2018-02-08T00:25:56.248Z,53.00
2018-02-08T00:26:56.236Z,58.00
2018-02-08T00:28:17.231Z,55.80
2018-02-08T00:29:17.221Z,56.90
2018-02-08T00:29:56.207Z,56.30
2018-02-08T00:30:56.196Z,55.40
2018-02-08T00:31:56.187Z,54.80
2018-02-08T00:33:17.177Z,56.70
2018-02-08T00:34:17.167Z,54.90
2018-02-08T00:34:56.152Z,56.10
2018-02-08T00:35:56.143Z,54.60
2018-02-08T00:36:56.134Z,57.60
2018-02-08T00:38:17.128Z,56.30
2018-02-08T00:39:17.116Z,56.50
2018-02-08T00:39:56.106Z,55.20
2018-02-08T00:40:56.092Z,54.50
2018-02-08T00:41:56.081Z,55.90
2018-02-08T00:43:17.077Z,53.80
2018-02-08T00:44:17.063Z,55.20
2018-02-08T00:44:56.041Z,55.60
2018-02-08T00:45:56.041Z,57.80
2018-02-08T00:46:56.026Z,57.60
2018-02-08T00:48:17.020Z,59.30
2018-02-08T00:49:17.010Z,56.60
2018-02-08T00:49:55.996Z,55.90
2018-02-08T00:50:55.985Z,57.90
2018-02-08T00:51:55.973Z,56.50
2018-02-08T00:53:16.967Z,56.70
2018-02-08T00:54:16.959Z,53.70
2018-02-08T00:54:55.942Z,53.10
2018-02-08T00:55:55.929Z,53.70
2018-02-08T00:56:55.925Z,57.80
2018-02-08T00:58:16.918Z,56.90
2018-02-08T00:59:16.902Z,55.60
2018-02-08T00:59:55.886Z,52.00
2018-02-08T01:00:55.878Z,58.30
2018-02-08T01:01:55.872Z,56.00
2018-02-08T01:03:16.863Z,58.10
2018-02-08T01:04:16.902Z,57.30
2018-02-08T01:04:55.831Z,58.30
2018-02-08T01:05:55.826Z,56.50
2018-02-08T01:06:55.820Z,59.70
2018-02-08T01:08:16.804Z,55.20
2018-02-08T01:09:16.797Z,55.80
2018-02-08T01:09:55.781Z,52.30
2018-02-08T01:10:55.791Z,55.90
2018-02-08T01:11:55.760Z,56.60
2018-02-08T01:13:16.762Z,56.50
2018-02-08T01:14:16.744Z,55.40
2018-02-08T01:14:55.729Z,58.80
2018-02-08T01:15:55.721Z,57.50
2018-02-08T01:16:55.711Z,55.30
2018-02-08T01:18:16.703Z,55.70
2018-02-08T01:19:16.696Z,58.10
2018-02-08T01:19:55.678Z,56.20
2018-02-08T01:20:55.672Z,54.10
2018-02-08T01:21:55.658Z,55.00
2018-02-08T01:23:16.650Z,54.50
2018-02-08T01:24:16.642Z,56.40
2018-02-08T01:24:55.622Z,54.30
2018-02-08T01:25:55.624Z,55.20
2018-02-08T01:26:55.600Z,55.60
2018-02-08T01:28:16.598Z,55.30
2018-02-08T01:29:16.613Z,51.60
2018-02-08T01:29:55.572Z,55.40
2018-02-08T01:30:55.560Z,55.10
2018-02-08T01:31:55.553Z,54.70
2018-02-08T01:33:16.546Z,55.00
2018-02-08T01:34:16.535Z,55.80
2018-02-08T01:34:55.516Z,54.60
2018-02-08T01:35:55.515Z,57.00
2018-02-08T01:36:55.498Z,54.40
2018-02-08T01:38:16.493Z,55.00
2018-02-08T01:39:16.484Z,52.80
2018-02-08T01:39:56.048Z,55.70
2018-02-08T01:40:56.129Z,58.40
2018-02-08T01:41:55.447Z,54.00
2018-02-08T01:43:16.440Z,53.10
2018-02-08T01:44:16.469Z,54.20
2018-02-08T01:44:55.419Z,56.60
2018-02-08T01:45:55.410Z,54.60
2018-02-08T01:46:55.393Z,53.70
2018-02-08T01:48:16.388Z,54.50
2018-02-08T01:49:16.372Z,54.50
2018-02-08T01:49:55.363Z,53.00
2018-02-08T01:50:55.351Z,54.30
2018-02-08T01:51:55.343Z,52.00
2018-02-08T01:53:16.333Z,55.70
2018-02-08T01:54:16.324Z,56.00
2018-02-08T01:54:55.351Z,55.90
2018-02-08T01:55:55.342Z,51.50
2018-02-08T01:56:55.289Z,54.10
2018-02-08T01:58:16.281Z,52.80
2018-02-08T01:59:16.287Z,53.50
2018-02-08T01:59:55.252Z,56.00
2018-02-08T02:00:55.241Z,55.20
2018-02-08T02:01:55.234Z,55.90
2018-02-08T02:03:16.233Z,54.90
2018-02-08T02:04:16.222Z,55.40
2018-02-08T02:04:55.202Z,54.20
2018-02-08T02:05:55.188Z,56.30
2018-02-08T02:06:55.179Z,53.90
2018-02-08T02:08:16.177Z,56.40
2018-02-08T02:09:16.169Z,54.00
2018-02-08T02:09:55.149Z,55.10
2018-02-08T02:10:55.168Z,56.50
2018-02-08T02:11:55.131Z,56.20
2018-02-08T02:13:16.123Z,57.50
2018-02-08T02:14:16.134Z,54.30
2018-02-08T02:14:55.099Z,52.80
2018-02-08T02:15:55.090Z,54.30
2018-02-08T02:16:55.119Z,55.40
2018-02-08T02:18:16.070Z,52.30
2018-02-08T02:19:16.060Z,53.40
2018-02-08T02:19:55.046Z,54.00
2018-02-08T02:20:55.033Z,55.80
2018-02-08T02:21:55.018Z,55.30
2018-02-08T02:23:16.020Z,54.30
2018-02-08T02:24:16.012Z,54.80
2018-02-08T02:24:54.990Z,55.70
2018-02-08T02:25:55.004Z,53.90
2018-02-08T02:26:54.964Z,56.80
2018-02-08T02:28:15.966Z,55.80
2018-02-08T02:29:15.990Z,57.40
2018-02-08T02:29:54.941Z,55.90
2018-02-08T02:30:54.934Z,55.50
2018-02-08T02:31:54.916Z,61.50
2018-02-08T02:33:15.913Z,56.70
2018-02-08T02:34:15.904Z,55.50
2018-02-08T02:34:54.890Z,57.10
2018-02-08T02:35:54.873Z,53.60
2018-02-08T02:36:54.861Z,55.50
2018-02-08T02:38:15.859Z,54.40
2018-02-08T02:39:15.849Z,57.00
2018-02-08T02:39:54.830Z,56.80
2018-02-08T02:40:54.867Z,54.70
2018-02-08T02:41:54.810Z,54.10
2018-02-08T02:43:15.807Z,54.40
2018-02-08T02:44:15.820Z,52.20
2018-02-08T02:44:54.779Z,54.60
2018-02-08T02:45:54.770Z,54.90
2018-02-08T02:46:54.759Z,52.30
2018-02-08T02:48:15.753Z,54.30
2018-02-08T02:49:15.742Z,55.50
2018-02-08T02:49:54.727Z,55.70
2018-02-08T02:50:54.717Z,55.10
2018-02-08T02:51:54.706Z,52.50
2018-02-08T02:53:15.701Z,56.00
2018-02-08T02:54:15.689Z,56.70
2018-02-08T02:54:54.673Z,54.70
2018-02-08T02:55:54.702Z,54.80
2018-02-08T02:56:54.655Z,57.50
2018-02-08T02:58:15.649Z,52.90
2018-02-08T02:59:15.666Z,53.00
2018-02-08T02:59:54.619Z,55.40
2018-02-08T03:00:54.614Z,56.00
2018-02-08T03:01:54.602Z,55.30
2018-02-08T03:03:15.595Z,56.60
2018-02-08T03:04:15.588Z,56.00
2018-02-08T03:04:54.567Z,54.80
2018-02-08T03:05:54.562Z,54.10
2018-02-08T03:06:54.550Z,54.40
2018-02-08T03:08:15.547Z,54.60
2018-02-08T03:09:15.531Z,55.50
2018-02-08T03:09:54.518Z,54.40
2018-02-08T03:10:54.523Z,54.90
2018-02-08T03:11:54.497Z,55.10
2018-02-08T03:13:15.492Z,55.10
2018-02-08T03:14:15.491Z,53.70
2018-02-08T03:14:54.464Z,56.90
2018-02-08T03:15:54.458Z,57.90
2018-02-08T03:16:54.447Z,56.20
2018-02-08T03:18:15.440Z,54.00
2018-02-08T03:19:15.446Z,57.60
2018-02-08T03:19:54.438Z,56.20
2018-02-08T03:20:54.405Z,59.80
2018-02-08T03:21:54.393Z,55.50
2018-02-08T03:23:15.389Z,56.60
2018-02-08T03:24:15.378Z,54.80
2018-02-08T03:24:54.376Z,55.40
2018-02-08T03:25:54.352Z,57.00
2018-02-08T03:26:54.353Z,53.70
2018-02-08T03:28:15.334Z,54.10
2018-02-08T03:29:15.327Z,56.10
2018-02-08T03:29:54.314Z,57.70
2018-02-08T03:30:54.321Z,59.50
2018-02-08T03:31:54.298Z,55.80
2018-02-08T03:33:15.284Z,56.10
2018-02-08T03:34:15.274Z,56.80
2018-02-08T03:34:54.263Z,55.30
2018-02-08T03:35:54.245Z,52.70
2018-02-08T03:36:54.233Z,54.20
2018-02-08T03:38:15.226Z,52.70
2018-02-08T03:39:15.218Z,54.90
2018-02-08T03:39:54.220Z,55.60
2018-02-08T03:40:54.221Z,56.30
2018-02-08T03:41:54.186Z,53.10
2018-02-08T03:43:15.181Z,56.10
2018-02-08T03:44:15.166Z,57.10
2018-02-08T03:44:54.161Z,54.10
2018-02-08T03:45:54.140Z,56.40
2018-02-08T03:46:54.131Z,55.20
2018-02-08T03:48:15.137Z,56.40
2018-02-08T03:49:15.112Z,54.40
2018-02-08T03:49:54.101Z,53.10
2018-02-08T03:50:54.093Z,55.70
2018-02-08T03:51:54.080Z,59.50
2018-02-08T03:53:15.071Z,57.00
2018-02-08T03:54:15.060Z,58.20
2018-02-08T03:54:54.046Z,56.40
2018-02-08T03:55:54.048Z,57.60
2018-02-08T03:56:54.025Z,58.70
2018-02-08T03:58:15.016Z,57.40
2018-02-08T03:59:15.008Z,55.80
2018-02-08T03:59:53.994Z,55.80
2018-02-08T04:00:53.979Z,57.10
2018-02-08T04:01:53.982Z,57.00
2018-02-08T04:03:14.967Z,55.20
2018-02-08T04:04:14.962Z,56.90
2018-02-08T04:04:53.935Z,58.10
2018-02-08T04:05:53.926Z,57.90
2018-02-08T04:06:53.914Z,55.80
2018-02-08T04:08:14.912Z,57.80
2018-02-08T04:09:14.899Z,57.10
2018-02-08T04:09:53.895Z,57.30
2018-02-08T04:10:53.873Z,57.30
2018-02-08T04:11:53.858Z,58.30
2018-02-08T04:13:14.861Z,57.30
2018-02-08T04:14:14.842Z,60.40
2018-02-08T04:14:53.828Z,56.90
2018-02-08T04:15:53.833Z,57.50
2018-02-08T04:16:53.809Z,57.50
2018-02-08T04:18:14.810Z,56.60
2018-02-08T04:19:14.794Z,58.00
2018-02-08T04:19:53.774Z,58.50
2018-02-08T04:20:53.765Z,59.80
2018-02-08T04:21:53.755Z,56.90
2018-02-08T04:23:14.753Z,56.30
2018-02-08T04:24:14.743Z,58.20
2018-02-08T04:24:53.723Z,55.60
2018-02-08T04:25:53.717Z,57.50
2018-02-08T04:26:53.741Z,60.00
2018-02-08T04:28:14.691Z,56.30
2018-02-08T04:29:14.687Z,59.00
2018-02-08T04:29:53.669Z,58.00
2018-02-08T04:30:53.661Z,58.20
2018-02-08T04:31:53.648Z,56.80
2018-02-08T04:33:14.664Z,57.50
2018-02-08T04:34:14.631Z,60.00
2018-02-08T04:34:53.611Z,58.60
2018-02-08T04:35:53.609Z,56.90
2018-02-08T04:36:53.598Z,60.70
2018-02-08T04:38:14.620Z,58.30
2018-02-08T04:39:15.132Z,54.70
2018-02-08T04:39:53.560Z,60.00
2018-02-08T04:40:53.552Z,57.50
2018-02-08T04:41:53.544Z,55.20
2018-02-08T04:43:14.546Z,56.50
2018-02-08T04:44:14.526Z,59.20
2018-02-08T04:44:53.509Z,54.30
2018-02-08T04:45:53.497Z,56.00
2018-02-08T04:46:53.484Z,59.40
2018-02-08T04:48:14.501Z,58.20
2018-02-08T04:49:14.481Z,59.30
2018-02-08T04:49:53.450Z,59.90
2018-02-08T04:50:53.447Z,60.80
2018-02-08T04:51:53.436Z,58.70
2018-02-08T04:53:14.423Z,57.60
2018-02-08T04:54:14.415Z,55.10
2018-02-08T04:54:53.418Z,57.40
2018-02-08T04:55:53.393Z,58.40
2018-02-08T04:56:53.376Z,59.30
2018-02-08T04:58:14.386Z,57.30
2018-02-08T04:59:14.395Z,60.50
2018-02-08T04:59:53.342Z,55.10
2018-02-08T05:00:53.330Z,61.10
2018-02-08T05:01:53.323Z,59.80
2018-02-08T05:03:14.314Z,59.20
2018-02-08T05:04:14.303Z,58.50
2018-02-08T05:04:53.291Z,58.20
2018-02-08T05:05:53.277Z,59.10
2018-02-08T05:06:53.262Z,57.10
2018-02-08T05:08:14.260Z,56.90
2018-02-08T05:09:14.250Z,59.80
2018-02-08T05:09:53.252Z,58.70
2018-02-08T05:10:53.222Z,57.60
2018-02-08T05:11:53.412Z,58.00
2018-02-08T05:13:14.233Z,60.40
2018-02-08T05:14:14.190Z,61.20
2018-02-08T05:14:53.178Z,60.20
2018-02-08T05:15:53.167Z,60.30
2018-02-08T05:16:53.153Z,60.10
2018-02-08T05:18:14.149Z,63.40
2018-02-08T05:19:14.142Z,60.40
2018-02-08T05:19:53.117Z,60.80
2018-02-08T05:20:53.108Z,59.70
2018-02-08T05:21:53.098Z,59.90
2018-02-08T05:23:14.091Z,59.70
2018-02-08T05:24:14.081Z,60.70
2018-02-08T05:24:53.080Z,61.00
2018-02-08T05:25:53.057Z,59.00
2018-02-08T05:26:53.049Z,59.20
2018-02-08T05:28:14.070Z,58.90
2018-02-08T05:29:14.028Z,60.20
2018-02-08T05:29:53.005Z,61.20
2018-02-08T05:30:52.999Z,60.20
2018-02-08T05:31:52.991Z,60.10
2018-02-08T05:33:13.981Z,60.90
2018-02-08T05:34:13.969Z,62.30
2018-02-08T05:34:52.950Z,58.60
2018-02-08T05:35:52.942Z,60.20
2018-02-08T05:36:52.934Z,60.80
2018-02-08T05:38:13.928Z,61.40
2018-02-08T05:39:13.915Z,60.00
2018-02-08T05:39:52.924Z,58.60
2018-02-08T05:40:52.899Z,60.80
2018-02-08T05:41:52.872Z,62.80
2018-02-08T05:43:13.901Z,59.50
2018-02-08T05:44:13.860Z,60.40
2018-02-08T05:44:52.840Z,59.50
2018-02-08T05:45:52.833Z,59.70
2018-02-08T05:46:52.827Z,59.10
2018-02-08T05:48:13.815Z,57.90
2018-02-08T05:49:13.801Z,59.20
2018-02-08T05:49:52.783Z,57.20
2018-02-08T05:50:52.776Z,59.10
2018-02-08T05:51:52.760Z,59.80
2018-02-08T05:53:13.759Z,61.10
2018-02-08T05:54:13.748Z,60.90
2018-02-08T05:54:52.757Z,57.40
2018-02-08T05:55:52.722Z,59.20
2018-02-08T05:56:52.709Z,60.10
2018-02-08T05:58:13.735Z,57.60
2018-02-08T05:59:13.691Z,61.80
2018-02-08T05:59:52.679Z,62.00
2018-02-08T06:00:52.664Z,56.40
2018-02-08T06:01:52.684Z,57.50
2018-02-08T06:03:13.646Z,56.10
2018-02-08T06:04:13.633Z,60.20
2018-02-08T06:04:52.619Z,57.10
2018-02-08T06:05:52.605Z,57.90
2018-02-08T06:06:52.596Z,57.10
2018-02-08T06:08:13.589Z,56.70
2018-02-08T06:09:13.577Z,57.10
2018-02-08T06:09:52.608Z,57.80
2018-02-08T06:10:52.550Z,57.10
2018-02-08T06:11:52.543Z,58.60
2018-02-08T06:13:13.576Z,58.00
2018-02-08T06:14:13.519Z,57.50
2018-02-08T06:14:52.512Z,59.20
2018-02-08T06:15:52.495Z,57.90
2018-02-08T06:16:52.525Z,62.40
2018-02-08T06:18:13.480Z,58.80
2018-02-08T06:19:13.467Z,60.00
2018-02-08T06:19:52.461Z,58.50
2018-02-08T06:20:52.435Z,57.30
2018-02-08T06:21:52.428Z,59.80
2018-02-08T06:23:13.420Z,57.90
2018-02-08T06:24:13.405Z,56.70
2018-02-08T06:24:52.392Z,56.70
2018-02-08T06:25:52.381Z,58.50
2018-02-08T06:26:52.373Z,60.30
2018-02-08T06:28:13.360Z,59.30
2018-02-08T06:29:13.351Z,59.00
2018-02-08T06:29:52.335Z,59.30
2018-02-08T06:30:52.324Z,59.60
2018-02-08T06:31:52.350Z,58.30
2018-02-08T06:33:13.308Z,58.20
2018-02-08T06:34:13.300Z,62.10
2018-02-08T06:34:52.281Z,58.50
2018-02-08T06:35:52.271Z,60.40
2018-02-08T06:36:52.260Z,61.00
2018-02-08T06:38:13.249Z,60.30
2018-02-08T06:39:13.236Z,57.50
2018-02-08T06:39:52.220Z,58.00
2018-02-08T06:40:52.211Z,58.50
2018-02-08T06:41:52.202Z,60.70
2018-02-08T06:43:13.197Z,57.90
2018-02-08T06:44:13.184Z,62.00
2018-02-08T06:44:52.176Z,59.40
2018-02-08T06:45:52.152Z,59.70
2018-02-08T06:46:52.173Z,60.20
2018-02-08T06:48:13.137Z,58.00
2018-02-08T06:49:13.129Z,58.50
2018-02-08T06:49:52.109Z,58.50
2018-02-08T06:50:52.098Z,59.50
2018-02-08T06:51:52.088Z,57.30
2018-02-08T06:53:13.082Z,58.70
2018-02-08T06:54:13.071Z,56.20
2018-02-08T06:54:52.068Z,62.70
2018-02-08T06:55:52.045Z,58.70
2018-02-08T06:56:52.029Z,59.20
2018-02-08T06:58:13.028Z,59.40
2018-02-08T06:59:13.016Z,60.80
2018-02-08T06:59:51.999Z,61.60
2018-02-08T07:00:51.988Z,59.00
2018-02-08T07:01:51.996Z,58.30
2018-02-08T07:03:12.975Z,58.20
2018-02-08T07:04:12.956Z,61.00
2018-02-08T07:04:51.938Z,60.50
2018-02-08T07:05:51.928Z,60.10
2018-02-08T07:06:51.915Z,60.40
2018-02-08T07:08:12.915Z,61.70
2018-02-08T07:09:12.900Z,59.60
2018-02-08T07:09:51.886Z,62.20
2018-02-08T07:10:51.890Z,61.80
2018-02-08T07:11:51.864Z,65.60
2018-02-08T07:13:12.854Z,61.80
2018-02-08T07:14:12.843Z,62.70
2018-02-08T07:14:51.830Z,60.90
2018-02-08T07:15:51.816Z,61.10
2018-02-08T07:16:51.819Z,64.70
2018-02-08T07:18:12.818Z,63.80
2018-02-08T07:19:12.787Z,63.00
2018-02-08T07:19:51.769Z,61.20
2018-02-08T07:20:51.760Z,64.10
2018-02-08T07:21:51.749Z,59.70
2018-02-08T07:23:12.739Z,60.90
2018-02-08T07:24:12.731Z,63.80
2018-02-08T07:24:51.717Z,61.90
2018-02-08T07:25:51.699Z,64.40
2018-02-08T07:26:51.691Z,61.90
2018-02-08T07:28:12.688Z,59.10
2018-02-08T07:29:12.676Z,62.70
2018-02-08T07:29:51.655Z,59.50
2018-02-08T07:30:51.645Z,61.90
2018-02-08T07:31:51.629Z,59.90
2018-02-08T07:33:12.626Z,60.50
2018-02-08T07:34:12.617Z,61.50
2018-02-08T07:34:51.616Z,61.30
2018-02-08T07:35:51.586Z,60.00
2018-02-08T07:36:51.580Z,61.90
2018-02-08T07:38:12.569Z,64.30
2018-02-08T07:39:12.559Z,64.50
2018-02-08T07:39:51.548Z,59.70
2018-02-08T07:40:51.529Z,61.90
2018-02-08T07:41:51.518Z,64.20
2018-02-08T07:43:12.515Z,61.80
2018-02-08T07:44:12.501Z,60.00
2018-02-08T07:44:51.481Z,64.00
2018-02-08T07:45:51.485Z,60.20
2018-02-08T07:46:51.466Z,60.80
2018-02-08T07:48:12.458Z,64.10
2018-02-08T07:49:12.459Z,64.20
2018-02-08T07:49:51.425Z,64.60
2018-02-08T07:50:52.231Z,62.80
2018-02-08T07:51:51.409Z,62.90
2018-02-08T07:53:12.403Z,62.80
2018-02-08T07:54:12.390Z,63.60
2018-02-08T07:54:51.368Z,61.80
2018-02-08T07:55:51.361Z,65.20
2018-02-08T07:56:51.350Z,68.20
2018-02-08T07:58:12.344Z,64.00
2018-02-08T07:59:12.337Z,61.20
2018-02-08T07:59:51.319Z,62.70
2018-02-08T08:00:51.342Z,62.30
2018-02-08T08:01:51.293Z,63.50
2018-02-08T08:03:12.286Z,67.20
2018-02-08T08:04:12.306Z,61.70
2018-02-08T08:04:51.263Z,65.20
2018-02-08T08:05:51.250Z,67.60
2018-02-08T08:06:51.245Z,64.00
2018-02-08T08:08:12.233Z,66.90
2018-02-08T08:09:12.221Z,68.20
2018-02-08T08:09:51.209Z,66.00
2018-02-08T08:10:51.195Z,67.20
2018-02-08T08:11:51.187Z,63.60
2018-02-08T08:13:12.173Z,64.40
2018-02-08T08:14:12.162Z,61.90
2018-02-08T08:14:51.150Z,66.10
2018-02-08T08:15:51.163Z,65.80
2018-02-08T08:16:51.125Z,67.80
2018-02-08T08:18:12.122Z,62.50
2018-02-08T08:19:12.156Z,67.20
2018-02-08T08:19:51.102Z,62.50
2018-02-08T08:20:51.077Z,63.80
2018-02-08T08:21:51.072Z,65.50
2018-02-08T08:23:12.066Z,60.30
2018-02-08T08:24:12.054Z,62.30
2018-02-08T08:24:51.039Z,64.50
2018-02-08T08:25:51.028Z,67.40
2018-02-08T08:26:51.014Z,62.90
2018-02-08T08:28:12.011Z,63.10
2018-02-08T08:29:11.995Z,63.10
2018-02-08T08:29:50.982Z,62.10
2018-02-08T08:30:50.997Z,64.90
2018-02-08T08:31:50.960Z,66.30
2018-02-08T08:33:11.952Z,61.60
2018-02-08T08:34:11.969Z,61.40
2018-02-08T08:34:50.925Z,64.80
2018-02-08T08:35:50.917Z,63.30
2018-02-08T08:36:50.900Z,64.10
2018-02-08T08:38:11.896Z,67.50
2018-02-08T08:39:11.890Z,63.70
2018-02-08T08:39:50.871Z,66.50
2018-02-08T08:40:50.858Z,66.50
2018-02-08T08:41:50.847Z,65.20
2018-02-08T08:43:11.844Z,67.90
2018-02-08T08:44:11.837Z,64.40
2018-02-08T08:44:50.812Z,64.60
2018-02-08T08:45:50.841Z,70.50
2018-02-08T08:46:50.794Z,66.40
2018-02-08T08:48:11.793Z,70.90
2018-02-08T08:49:11.795Z,68.70
2018-02-08T08:49:50.762Z,68.80
2018-02-08T08:50:50.750Z,68.40
2018-02-08T08:51:50.745Z,67.00
2018-02-08T08:53:11.755Z,64.90
2018-02-08T08:54:11.724Z,63.20
2018-02-08T08:54:50.709Z,65.20
2018-02-08T08:55:50.702Z,64.70
2018-02-08T08:56:50.684Z,65.10
2018-02-08T08:58:11.679Z,63.20
2018-02-08T08:59:11.669Z,63.40
2018-02-08T08:59:50.653Z,66.10
2018-02-08T09:00:50.671Z,66.60
2018-02-08T09:01:50.629Z,66.80
2018-02-08T09:03:11.628Z,67.90
2018-02-08T09:04:11.653Z,66.60
2018-02-08T09:04:50.599Z,68.10
2018-02-08T09:05:50.589Z,64.70
2018-02-08T09:06:50.575Z,62.30
2018-02-08T09:08:11.568Z,60.50
2018-02-08T09:09:11.564Z,65.40
2018-02-08T09:09:50.542Z,67.70
2018-02-08T09:10:50.546Z,66.70
2018-02-08T09:11:50.547Z,70.10
2018-02-08T09:13:11.515Z,61.90
2018-02-08T09:14:11.512Z,62.30
2018-02-08T09:14:50.492Z,62.30
2018-02-08T09:15:50.482Z,65.20
2018-02-08T09:16:50.468Z,63.20
2018-02-08T09:18:11.466Z,66.10
2018-02-08T09:19:11.457Z,65.40
2018-02-08T09:19:50.435Z,65.80
2018-02-08T09:20:50.429Z,60.70
2018-02-08T09:21:50.418Z,63.30
2018-02-08T09:23:11.421Z,63.90
2018-02-08T09:24:11.400Z,67.50
2018-02-08T09:24:50.380Z,65.20
2018-02-08T09:25:50.377Z,61.30
2018-02-08T09:26:50.361Z,65.80
2018-02-08T09:28:11.361Z,66.30
2018-02-08T09:29:11.344Z,66.80
2018-02-08T09:29:50.327Z,64.50
2018-02-08T09:30:50.320Z,66.20
2018-02-08T09:31:50.309Z,70.00
2018-02-08T09:33:11.311Z,63.50
2018-02-08T09:34:11.295Z,68.80
2018-02-08T09:34:50.274Z,66.70
2018-02-08T09:35:50.269Z,69.90
2018-02-08T09:36:50.277Z,67.70
2018-02-08T09:38:11.290Z,63.60
2018-02-08T09:39:11.281Z,65.90
2018-02-08T09:39:50.229Z,69.70
2018-02-08T09:40:50.246Z,66.70
2018-02-08T09:41:50.202Z,66.70
2018-02-08T09:43:11.198Z,67.00
2018-02-08T09:44:11.190Z,65.40
2018-02-08T09:44:50.203Z,66.30
2018-02-08T09:45:50.157Z,69.40
2018-02-08T09:46:50.152Z,68.70
2018-02-08T09:48:11.170Z,69.60
2018-02-08T09:49:11.137Z,68.40
2018-02-08T09:49:50.113Z,66.90
2018-02-08T09:50:50.107Z,65.90
2018-02-08T09:51:50.118Z,64.90
2018-02-08T09:53:11.095Z,64.10
2018-02-08T09:54:11.085Z,65.00
2018-02-08T09:54:50.088Z,64.90
2018-02-08T09:55:50.058Z,66.20
2018-02-08T09:56:50.067Z,68.80
2018-02-08T09:58:11.039Z,62.10
2018-02-08T09:59:11.026Z,67.50
2018-02-08T09:59:50.035Z,72.30
2018-02-08T10:00:50.004Z,67.00
2018-02-08T10:01:49.990Z,68.80
2018-02-08T10:03:11.020Z,65.20
2018-02-08T10:04:10.978Z,63.30
2018-02-08T10:04:49.979Z,68.00
2018-02-08T10:05:49.944Z,66.10
2018-02-08T10:06:49.937Z,68.40
2018-02-08T10:08:10.930Z,64.00
2018-02-08T10:09:10.920Z,64.30
2018-02-08T10:09:49.909Z,66.90
2018-02-08T10:10:49.898Z,67.50
2018-02-08T10:11:49.884Z,66.90
2018-02-08T10:13:10.878Z,70.50
2018-02-08T10:14:10.867Z,66.00
2018-02-08T10:14:49.958Z,69.00
2018-02-08T10:15:49.857Z,67.60
2018-02-08T10:16:49.852Z,68.70
2018-02-08T10:18:10.854Z,63.50
2018-02-08T10:19:10.816Z,63.90
2018-02-08T10:19:49.838Z,67.70
2018-02-08T10:20:49.807Z,67.20
2018-02-08T10:21:49.786Z,67.30
2018-02-08T10:23:10.774Z,66.90
2018-02-08T10:24:10.760Z,67.70
2018-02-08T10:24:49.743Z,64.80
2018-02-08T10:25:49.738Z,65.10
2018-02-08T10:26:49.736Z,68.80
2018-02-08T10:28:10.724Z,66.50
2018-02-08T10:29:10.712Z,68.90
2018-02-08T10:29:49.733Z,65.20
2018-02-08T10:30:49.742Z,68.30
2018-02-08T10:31:49.678Z,69.40
2018-02-08T10:33:10.702Z,68.70
2018-02-08T10:34:10.663Z,69.20
2018-02-08T10:34:49.645Z,70.20
2018-02-08T10:35:49.636Z,67.80
2018-02-08T10:36:49.631Z,68.10
2018-02-08T10:38:10.621Z,70.10
2018-02-08T10:39:10.613Z,67.30
2018-02-08T10:39:49.594Z,69.50
2018-02-08T10:40:49.591Z,68.60
2018-02-08T10:41:49.576Z,68.10
2018-02-08T10:43:10.575Z,69.10
2018-02-08T10:44:10.560Z,67.60
2018-02-08T10:44:49.561Z,67.70
2018-02-08T10:45:49.553Z,69.80
2018-02-08T10:46:49.525Z,67.40
2018-02-08T10:48:10.545Z,68.40
2018-02-08T10:49:10.509Z,69.10
2018-02-08T10:49:49.495Z,68.90
2018-02-08T10:50:49.483Z,70.80
2018-02-08T10:51:49.486Z,68.30
2018-02-08T10:53:10.474Z,67.80
2018-02-08T10:54:10.460Z,71.00
2018-02-08T10:54:49.440Z,70.80
2018-02-08T10:55:49.436Z,69.10
2018-02-08T10:56:49.421Z,67.00
2018-02-08T10:58:10.421Z,68.40
2018-02-08T10:59:10.411Z,66.30
2018-02-08T10:59:49.431Z,67.80
2018-02-08T11:00:49.387Z,71.40
2018-02-08T11:01:49.383Z,66.10
2018-02-08T11:03:10.396Z,69.90
2018-02-08T11:04:10.363Z,70.90
2018-02-08T11:04:49.341Z,69.80
2018-02-08T11:05:49.333Z,70.80
2018-02-08T11:06:49.355Z,72.30
2018-02-08T11:08:10.323Z,68.80
2018-02-08T11:09:10.314Z,69.30
2018-02-08T11:09:49.291Z,71.00
2018-02-08T11:10:49.291Z,66.50
2018-02-08T11:11:49.276Z,69.50
2018-02-08T11:13:10.271Z,68.80
2018-02-08T11:14:10.260Z,66.20
2018-02-08T11:14:49.252Z,70.90
2018-02-08T11:15:49.278Z,70.80
2018-02-08T11:16:49.227Z,70.00
2018-02-08T11:18:10.275Z,69.40
2018-02-08T11:19:10.215Z,69.60
2018-02-08T11:19:49.193Z,71.50
2018-02-08T11:20:49.187Z,69.90
2018-02-08T11:21:49.182Z,71.60
2018-02-08T11:23:10.186Z,71.40
2018-02-08T11:24:10.175Z,67.90
2018-02-08T11:24:49.150Z,71.80
2018-02-08T11:25:49.138Z,70.00
2018-02-08T11:26:49.132Z,73.50
2018-02-08T11:28:10.125Z,69.20
2018-02-08T11:29:10.114Z,72.30
2018-02-08T11:29:49.107Z,71.10
2018-02-08T11:30:49.090Z,67.40
2018-02-08T11:31:49.081Z,68.50
2018-02-08T11:33:10.115Z,66.80
2018-02-08T11:34:10.097Z,69.00
2018-02-08T11:34:49.045Z,70.40
2018-02-08T11:35:49.045Z,66.40
2018-02-08T11:36:49.078Z,71.00
2018-02-08T11:38:10.027Z,68.70
2018-02-08T11:39:10.018Z,70.50
2018-02-08T11:39:49.014Z,68.80
2018-02-08T11:40:48.994Z,69.10
2018-02-08T11:41:48.982Z,68.10
2018-02-08T11:43:09.990Z,71.70
2018-02-08T11:44:09.982Z,68.00
2018-02-08T11:44:48.951Z,74.00
2018-02-08T11:45:48.944Z,68.40
2018-02-08T11:46:48.937Z,65.40
2018-02-08T11:48:09.974Z,71.40
2018-02-08T11:49:09.914Z,69.90
2018-02-08T11:49:48.901Z,71.90
2018-02-08T11:50:48.900Z,70.40
2018-02-08T11:51:48.901Z,67.70
2018-02-08T11:53:09.885Z,69.70
2018-02-08T11:54:09.881Z,68.30
2018-02-08T11:54:48.857Z,69.60
2018-02-08T11:55:48.848Z,71.50
2018-02-08T11:56:48.838Z,70.90
2018-02-08T11:58:09.846Z,71.90
2018-02-08T11:59:09.860Z,69.90
2018-02-08T11:59:48.810Z,72.40
2018-02-08T12:00:48.806Z,68.30
2018-02-08T12:01:48.820Z,67.90
2018-02-08T12:03:09.813Z,68.80
2018-02-08T12:04:09.791Z,71.40
2018-02-08T12:04:48.758Z,70.90
2018-02-08T12:05:48.752Z,72.10
2018-02-08T12:06:48.770Z,67.90
2018-02-08T12:08:09.747Z,71.20
2018-02-08T12:09:09.735Z,69.30
2018-02-08T12:09:48.723Z,69.40
2018-02-08T12:10:48.705Z,65.90
2018-02-08T12:11:48.696Z,71.80
2018-02-08T12:13:09.690Z,71.70
2018-02-08T12:14:09.676Z,66.80
2018-02-08T12:14:48.667Z,67.70
2018-02-08T12:15:48.663Z,68.90
2018-02-08T12:16:48.647Z,68.80
2018-02-08T12:18:09.699Z,65.90
2018-02-08T12:19:09.633Z,67.80
2018-02-08T12:19:48.621Z,69.90
2018-02-08T12:20:48.611Z,69.40
2018-02-08T12:21:48.620Z,66.50
2018-02-08T12:23:09.597Z,65.10
2018-02-08T12:24:09.586Z,70.60
2018-02-08T12:24:48.578Z,69.40
2018-02-08T12:25:48.562Z,69.70
2018-02-08T12:26:48.560Z,66.50
2018-02-08T12:28:09.546Z,67.70
2018-02-08T12:29:09.543Z,66.40
2018-02-08T12:29:48.522Z,69.40
2018-02-08T12:30:48.520Z,67.40
2018-02-08T12:31:48.506Z,69.20
2018-02-08T12:33:09.500Z,69.50
2018-02-08T12:34:09.491Z,70.10
2018-02-08T12:34:48.474Z,69.90
2018-02-08T12:35:48.469Z,71.70
2018-02-08T12:36:48.492Z,67.70
2018-02-08T12:38:09.456Z,71.90
2018-02-08T12:39:09.445Z,72.10
2018-02-08T12:39:48.428Z,71.80
2018-02-08T12:40:48.418Z,72.30
2018-02-08T12:41:48.415Z,73.50
2018-02-08T12:43:09.411Z,70.70
2018-02-08T12:44:09.399Z,68.50
2018-02-08T12:44:48.382Z,70.90
2018-02-08T12:45:48.378Z,68.60
2018-02-08T12:46:48.363Z,67.50
2018-02-08T12:48:09.362Z,71.10
2018-02-08T12:49:09.354Z,65.90
2018-02-08T12:49:48.340Z,69.70
2018-02-08T12:50:48.327Z,67.30
2018-02-08T12:51:48.342Z,69.80
2018-02-08T12:53:09.321Z,68.60